sensor_id;sensor_type;location;lat;lon;timestamp;temperature;humidity
16160;DHT22;8185;57.818;15.224;2023-04-15T00:01:01;4.50;99.90
16160;DHT22;8185;57.818;15.224;2023-04-15T00:03:29;4.50;99.90
16160;DHT22;8185;57.818;15.224;2023-04-15T00:05:56;4.50;99.90
16160;DHT22;8185;57.818;15.224;2023-04-15T00:08:24;4.50;99.90
16160;DHT22;8185;57.818;15.224;2023-04-15T00:10:53;4.50;99.90
16160;DHT22;8185;57.818;15.224;2023-04-15T00:13:20;4.50;99.90
16160;DHT22;8185;57.818;15.224;2023-04-15T00:15:47;4.50;99.90
16160;DHT22;8185;57.818;15.224;2023-04-15T00:18:14;4.50;99.90
16160;DHT22;8185;57.818;15.224;2023-04-15T00:20:41;4.50;99.90
16160;DHT22;8185;57.818;15.224;2023-04-15T00:23:08;4.50;99.90
16160;DHT22;8185;57.818;15.224;2023-04-15T00:25:35;4.50;99.90
16160;DHT22;8185;57.818;15.224;2023-04-15T00:28:04;4.40;99.90
16160;DHT22;8185;57.818;15.224;2023-04-15T00:30:31;4.40;99.90
16160;DHT22;8185;57.818;15.224;2023-04-15T00:33:00;4.40;99.90
16160;DHT22;8185;57.818;15.224;2023-04-15T00:35:28;4.40;99.90
16160;DHT22;8185;57.818;15.224;2023-04-15T00:37:57;4.40;99.90
16160;DHT22;8185;57.818;15.224;2023-04-15T00:40:24;4.40;99.90
16160;DHT22;8185;57.818;15.224;2023-04-15T00:42:52;4.40;99.90
16160;DHT22;8185;57.818;15.224;2023-04-15T00:45:21;4.40;99.90
16160;DHT22;8185;57.818;15.224;2023-04-15T00:47:48;4.40;99.90
16160;DHT22;8185;57.818;15.224;2023-04-15T00:50:17;4.40;99.90
16160;DHT22;8185;57.818;15.224;2023-04-15T00:52:44;4.40;99.90
16160;DHT22;8185;57.818;15.224;2023-04-15T00:55:11;4.40;99.90
16160;DHT22;8185;57.818;15.224;2023-04-15T00:57:39;4.40;99.90
16160;DHT22;8185;57.818;15.224;2023-04-15T01:00:07;4.40;99.90
16160;DHT22;8185;57.818;15.224;2023-04-15T01:02:37;4.40;99.90
16160;DHT22;8185;57.818;15.224;2023-04-15T01:05:05;4.40;99.90
16160;DHT22;8185;57.818;15.224;2023-04-15T01:07:33;4.40;99.90
16160;DHT22;8185;57.818;15.224;2023-04-15T01:10:00;4.40;99.90
16160;DHT22;8185;57.818;15.224;2023-04-15T01:12:28;4.40;99.90
16160;DHT22;8185;57.818;15.224;2023-04-15T01:14:58;4.40;99.90
16160;DHT22;8185;57.818;15.224;2023-04-15T01:17:26;4.40;99.90
16160;DHT22;8185;57.818;15.224;2023-04-15T01:19:54;4.40;99.90
16160;DHT22;8185;57.818;15.224;2023-04-15T01:22:23;4.40;99.90
16160;DHT22;8185;57.818;15.224;2023-04-15T01:24:56;4.40;99.90
16160;DHT22;8185;57.818;15.224;2023-04-15T01:27:28;4.40;99.90
16160;DHT22;8185;57.818;15.224;2023-04-15T01:29:55;4.40;99.90
16160;DHT22;8185;57.818;15.224;2023-04-15T01:32:23;4.40;99.90
16160;DHT22;8185;57.818;15.224;2023-04-15T01:34:50;4.40;99.90
16160;DHT22;8185;57.818;15.224;2023-04-15T01:37:18;4.40;99.90
16160;DHT22;8185;57.818;15.224;2023-04-15T01:39:45;4.40;99.90
16160;DHT22;8185;57.818;15.224;2023-04-15T01:42:12;4.40;99.90
16160;DHT22;8185;57.818;15.224;2023-04-15T01:44:40;4.40;99.90
16160;DHT22;8185;57.818;15.224;2023-04-15T01:47:08;4.40;99.90
16160;DHT22;8185;57.818;15.224;2023-04-15T01:49:35;4.40;99.90
16160;DHT22;8185;57.818;15.224;2023-04-15T01:52:02;4.40;99.90
16160;DHT22;8185;57.818;15.224;2023-04-15T01:54:29;4.40;99.90
16160;DHT22;8185;57.818;15.224;2023-04-15T01:56:56;4.40;99.90
16160;DHT22;8185;57.818;15.224;2023-04-15T01:59:24;4.40;99.90
16160;DHT22;8185;57.818;15.224;2023-04-15T02:01:52;4.40;99.90
16160;DHT22;8185;57.818;15.224;2023-04-15T02:04:19;4.40;99.90
16160;DHT22;8185;57.818;15.224;2023-04-15T02:06:47;4.40;99.90
16160;DHT22;8185;57.818;15.224;2023-04-15T02:09:14;4.40;99.90
16160;DHT22;8185;57.818;15.224;2023-04-15T02:11:41;4.30;99.90
16160;DHT22;8185;57.818;15.224;2023-04-15T02:14:08;4.30;99.90
16160;DHT22;8185;57.818;15.224;2023-04-15T02:16:35;4.40;99.90
16160;DHT22;8185;57.818;15.224;2023-04-15T02:19:04;4.30;99.90
16160;DHT22;8185;57.818;15.224;2023-04-15T02:21:31;4.30;99.90
16160;DHT22;8185;57.818;15.224;2023-04-15T02:24:00;4.30;99.90
16160;DHT22;8185;57.818;15.224;2023-04-15T02:26:29;4.30;99.90
16160;DHT22;8185;57.818;15.224;2023-04-15T02:28:57;4.30;99.90
16160;DHT22;8185;57.818;15.224;2023-04-15T02:31:25;4.30;99.90
16160;DHT22;8185;57.818;15.224;2023-04-15T02:33:52;4.30;99.90
16160;DHT22;8185;57.818;15.224;2023-04-15T02:36:21;4.30;99.90
16160;DHT22;8185;57.818;15.224;2023-04-15T02:38:48;4.30;99.90
16160;DHT22;8185;57.818;15.224;2023-04-15T02:41:15;4.30;99.90
16160;DHT22;8185;57.818;15.224;2023-04-15T02:43:43;4.30;99.90
16160;DHT22;8185;57.818;15.224;2023-04-15T02:46:10;4.30;99.90
16160;DHT22;8185;57.818;15.224;2023-04-15T02:48:39;4.30;99.90
16160;DHT22;8185;57.818;15.224;2023-04-15T02:51:13;4.30;99.90
16160;DHT22;8185;57.818;15.224;2023-04-15T02:53:42;4.30;99.90
16160;DHT22;8185;57.818;15.224;2023-04-15T02:56:09;4.20;99.90
16160;DHT22;8185;57.818;15.224;2023-04-15T02:58:37;4.20;99.90
16160;DHT22;8185;57.818;15.224;2023-04-15T03:01:05;4.20;99.90
16160;DHT22;8185;57.818;15.224;2023-04-15T03:03:33;4.20;99.90
16160;DHT22;8185;57.818;15.224;2023-04-15T03:06:00;4.20;99.90
16160;DHT22;8185;57.818;15.224;2023-04-15T03:08:27;4.20;99.90
16160;DHT22;8185;57.818;15.224;2023-04-15T03:10:57;4.20;99.90
16160;DHT22;8185;57.818;15.224;2023-04-15T03:13:25;4.20;99.90
16160;DHT22;8185;57.818;15.224;2023-04-15T03:15:52;4.20;99.90
16160;DHT22;8185;57.818;15.224;2023-04-15T03:18:20;4.10;99.90
16160;DHT22;8185;57.818;15.224;2023-04-15T03:20:48;4.10;99.90
16160;DHT22;8185;57.818;15.224;2023-04-15T03:23:15;4.10;99.90
16160;DHT22;8185;57.818;15.224;2023-04-15T03:25:43;4.10;99.90
16160;DHT22;8185;57.818;15.224;2023-04-15T03:28:12;4.10;99.90
16160;DHT22;8185;57.818;15.224;2023-04-15T03:30:39;4.10;99.90
16160;DHT22;8185;57.818;15.224;2023-04-15T03:33:06;4.00;99.90
16160;DHT22;8185;57.818;15.224;2023-04-15T03:35:34;4.10;99.90
16160;DHT22;8185;57.818;15.224;2023-04-15T03:38:01;4.10;99.90
16160;DHT22;8185;57.818;15.224;2023-04-15T03:40:28;4.10;99.90
16160;DHT22;8185;57.818;15.224;2023-04-15T03:42:55;4.00;99.90
16160;DHT22;8185;57.818;15.224;2023-04-15T03:45:24;4.10;99.90
16160;DHT22;8185;57.818;15.224;2023-04-15T03:47:51;4.10;99.90
16160;DHT22;8185;57.818;15.224;2023-04-15T03:50:18;4.00;99.90
16160;DHT22;8185;57.818;15.224;2023-04-15T03:52:45;4.00;99.90
16160;DHT22;8185;57.818;15.224;2023-04-15T03:55:13;4.00;99.90
16160;DHT22;8185;57.818;15.224;2023-04-15T03:57:40;4.00;99.90
16160;DHT22;8185;57.818;15.224;2023-04-15T04:00:10;4.00;99.90
16160;DHT22;8185;57.818;15.224;2023-04-15T04:02:39;4.00;99.90
16160;DHT22;8185;57.818;15.224;2023-04-15T04:05:07;4.00;99.90
16160;DHT22;8185;57.818;15.224;2023-04-15T04:07:34;4.10;99.90
16160;DHT22;8185;57.818;15.224;2023-04-15T04:10:01;4.10;99.90
16160;DHT22;8185;57.818;15.224;2023-04-15T04:12:29;4.10;99.90
16160;DHT22;8185;57.818;15.224;2023-04-15T04:14:56;4.10;99.90
16160;DHT22;8185;57.818;15.224;2023-04-15T04:17:23;4.10;99.90
16160;DHT22;8185;57.818;15.224;2023-04-15T04:19:52;4.10;99.90
16160;DHT22;8185;57.818;15.224;2023-04-15T04:22:21;4.10;99.90
16160;DHT22;8185;57.818;15.224;2023-04-15T04:24:49;4.00;99.90
16160;DHT22;8185;57.818;15.224;2023-04-15T04:27:16;4.10;99.90
16160;DHT22;8185;57.818;15.224;2023-04-15T04:29:43;4.10;99.90
16160;DHT22;8185;57.818;15.224;2023-04-15T04:32:12;4.10;99.90
16160;DHT22;8185;57.818;15.224;2023-04-15T04:34:40;4.10;99.90
16160;DHT22;8185;57.818;15.224;2023-04-15T04:37:08;4.10;99.90
16160;DHT22;8185;57.818;15.224;2023-04-15T04:39:36;4.10;99.90
16160;DHT22;8185;57.818;15.224;2023-04-15T04:42:03;4.20;99.90
16160;DHT22;8185;57.818;15.224;2023-04-15T04:44:30;4.20;99.90
16160;DHT22;8185;57.818;15.224;2023-04-15T04:46:57;4.30;99.90
16160;DHT22;8185;57.818;15.224;2023-04-15T04:49:24;4.30;99.90
16160;DHT22;8185;57.818;15.224;2023-04-15T04:51:52;4.30;99.90
16160;DHT22;8185;57.818;15.224;2023-04-15T04:54:20;4.40;99.90
16160;DHT22;8185;57.818;15.224;2023-04-15T04:56:48;4.50;99.90
16160;DHT22;8185;57.818;15.224;2023-04-15T04:59:15;4.50;99.90
16160;DHT22;8185;57.818;15.224;2023-04-15T05:01:43;4.60;99.90
16160;DHT22;8185;57.818;15.224;2023-04-15T05:04:10;4.70;99.90
16160;DHT22;8185;57.818;15.224;2023-04-15T05:06:37;4.80;99.90
16160;DHT22;8185;57.818;15.224;2023-04-15T05:09:04;4.90;99.90
16160;DHT22;8185;57.818;15.224;2023-04-15T05:11:33;5.00;99.90
16160;DHT22;8185;57.818;15.224;2023-04-15T05:14:00;5.20;99.90
16160;DHT22;8185;57.818;15.224;2023-04-15T05:16:27;5.30;99.90
16160;DHT22;8185;57.818;15.224;2023-04-15T05:18:54;5.30;99.90
16160;DHT22;8185;57.818;15.224;2023-04-15T05:21:22;5.40;99.90
16160;DHT22;8185;57.818;15.224;2023-04-15T05:23:49;5.40;99.90
16160;DHT22;8185;57.818;15.224;2023-04-15T05:26:16;5.30;99.90
16160;DHT22;8185;57.818;15.224;2023-04-15T05:28:44;5.30;99.90
16160;DHT22;8185;57.818;15.224;2023-04-15T05:31:12;5.30;99.90
16160;DHT22;8185;57.818;15.224;2023-04-15T05:33:40;5.30;99.90
16160;DHT22;8185;57.818;15.224;2023-04-15T05:36:07;5.30;99.90
16160;DHT22;8185;57.818;15.224;2023-04-15T05:38:34;5.50;99.90
16160;DHT22;8185;57.818;15.224;2023-04-15T05:41:02;5.50;99.90
16160;DHT22;8185;57.818;15.224;2023-04-15T05:43:29;5.60;99.90
16160;DHT22;8185;57.818;15.224;2023-04-15T05:45:58;5.50;99.90
16160;DHT22;8185;57.818;15.224;2023-04-15T05:48:25;5.60;99.90
16160;DHT22;8185;57.818;15.224;2023-04-15T05:50:52;5.60;99.90
16160;DHT22;8185;57.818;15.224;2023-04-15T05:53:19;5.70;99.90
16160;DHT22;8185;57.818;15.224;2023-04-15T05:55:47;5.90;99.90
16160;DHT22;8185;57.818;15.224;2023-04-15T05:58:14;6.00;99.90
16160;DHT22;8185;57.818;15.224;2023-04-15T06:00:41;6.10;99.90
16160;DHT22;8185;57.818;15.224;2023-04-15T06:03:10;6.10;99.90
16160;DHT22;8185;57.818;15.224;2023-04-15T06:05:37;6.10;99.90
16160;DHT22;8185;57.818;15.224;2023-04-15T06:08:05;6.10;99.90
16160;DHT22;8185;57.818;15.224;2023-04-15T06:10:34;6.10;99.90
16160;DHT22;8185;57.818;15.224;2023-04-15T06:13:01;6.20;99.90
16160;DHT22;8185;57.818;15.224;2023-04-15T06:15:29;6.20;99.90
16160;DHT22;8185;57.818;15.224;2023-04-15T06:17:56;6.30;99.90
16160;DHT22;8185;57.818;15.224;2023-04-15T06:20:25;6.30;99.90
16160;DHT22;8185;57.818;15.224;2023-04-15T06:22:52;6.30;99.90
16160;DHT22;8185;57.818;15.224;2023-04-15T06:25:19;6.30;99.90
16160;DHT22;8185;57.818;15.224;2023-04-15T06:27:46;6.20;99.90
16160;DHT22;8185;57.818;15.224;2023-04-15T06:30:14;6.10;99.90
16160;DHT22;8185;57.818;15.224;2023-04-15T06:32:41;5.90;99.90
16160;DHT22;8185;57.818;15.224;2023-04-15T06:35:08;5.80;99.90
16160;DHT22;8185;57.818;15.224;2023-04-15T06:37:37;5.90;99.90
16160;DHT22;8185;57.818;15.224;2023-04-15T06:40:06;5.90;99.90
16160;DHT22;8185;57.818;15.224;2023-04-15T06:42:34;5.90;99.90
16160;DHT22;8185;57.818;15.224;2023-04-15T06:45:01;6.10;99.90
16160;DHT22;8185;57.818;15.224;2023-04-15T06:47:28;6.40;99.90
16160;DHT22;8185;57.818;15.224;2023-04-15T06:49:56;6.60;99.90
16160;DHT22;8185;57.818;15.224;2023-04-15T06:52:23;6.90;99.90
16160;DHT22;8185;57.818;15.224;2023-04-15T06:54:52;6.90;99.90
16160;DHT22;8185;57.818;15.224;2023-04-15T06:57:19;7.10;99.90
16160;DHT22;8185;57.818;15.224;2023-04-15T06:59:46;7.30;99.90
16160;DHT22;8185;57.818;15.224;2023-04-15T07:02:13;7.40;99.90
16160;DHT22;8185;57.818;15.224;2023-04-15T07:04:41;7.60;99.90
16160;DHT22;8185;57.818;15.224;2023-04-15T07:07:08;7.70;99.90
16160;DHT22;8185;57.818;15.224;2023-04-15T07:09:35;7.80;99.90
16160;DHT22;8185;57.818;15.224;2023-04-15T07:12:04;7.80;99.90
16160;DHT22;8185;57.818;15.224;2023-04-15T07:14:32;7.90;99.90
16160;DHT22;8185;57.818;15.224;2023-04-15T07:16:59;8.00;99.90
16160;DHT22;8185;57.818;15.224;2023-04-15T07:19:27;8.00;99.90
16160;DHT22;8185;57.818;15.224;2023-04-15T07:21:54;8.30;99.90
16160;DHT22;8185;57.818;15.224;2023-04-15T07:24:21;8.40;99.90
16160;DHT22;8185;57.818;15.224;2023-04-15T07:26:51;8.60;99.90
16160;DHT22;8185;57.818;15.224;2023-04-15T07:29:20;8.60;99.90
16160;DHT22;8185;57.818;15.224;2023-04-15T07:31:47;8.50;99.90
16160;DHT22;8185;57.818;15.224;2023-04-15T07:34:15;8.40;99.90
16160;DHT22;8185;57.818;15.224;2023-04-15T07:36:42;8.20;99.90
16160;DHT22;8185;57.818;15.224;2023-04-15T07:39:10;8.10;99.90
16160;DHT22;8185;57.818;15.224;2023-04-15T07:41:38;8.10;99.90
16160;DHT22;8185;57.818;15.224;2023-04-15T07:44:05;8.00;99.90
16160;DHT22;8185;57.818;15.224;2023-04-15T07:46:33;7.90;99.90
16160;DHT22;8185;57.818;15.224;2023-04-15T07:49:02;7.80;99.90
16160;DHT22;8185;57.818;15.224;2023-04-15T07:51:29;7.90;99.90
16160;DHT22;8185;57.818;15.224;2023-04-15T07:53:57;8.00;99.90
16160;DHT22;8185;57.818;15.224;2023-04-15T07:56:24;8.20;99.90
16160;DHT22;8185;57.818;15.224;2023-04-15T07:58:51;8.20;99.90
16160;DHT22;8185;57.818;15.224;2023-04-15T08:01:19;8.20;99.90
16160;DHT22;8185;57.818;15.224;2023-04-15T08:03:47;8.30;99.90
16160;DHT22;8185;57.818;15.224;2023-04-15T08:06:15;8.40;99.90
16160;DHT22;8185;57.818;15.224;2023-04-15T08:08:42;8.50;99.90
16160;DHT22;8185;57.818;15.224;2023-04-15T08:11:09;8.60;99.90
16160;DHT22;8185;57.818;15.224;2023-04-15T08:13:36;8.50;99.90
16160;DHT22;8185;57.818;15.224;2023-04-15T08:16:16;8.80;99.90
16160;DHT22;8185;57.818;15.224;2023-04-15T08:18:44;8.90;99.90
16160;DHT22;8185;57.818;15.224;2023-04-15T08:21:12;9.00;99.90
16160;DHT22;8185;57.818;15.224;2023-04-15T08:23:40;9.00;99.90
16160;DHT22;8185;57.818;15.224;2023-04-15T08:26:07;9.00;99.90
16160;DHT22;8185;57.818;15.224;2023-04-15T08:28:35;8.80;99.90
16160;DHT22;8185;57.818;15.224;2023-04-15T08:31:03;8.90;99.90
16160;DHT22;8185;57.818;15.224;2023-04-15T08:33:30;8.70;99.90
16160;DHT22;8185;57.818;15.224;2023-04-15T08:35:58;8.60;99.90
16160;DHT22;8185;57.818;15.224;2023-04-15T08:38:27;8.60;99.90
16160;DHT22;8185;57.818;15.224;2023-04-15T08:40:57;8.70;99.90
16160;DHT22;8185;57.818;15.224;2023-04-15T08:43:33;8.90;99.90
16160;DHT22;8185;57.818;15.224;2023-04-15T08:46:04;8.90;99.90
16160;DHT22;8185;57.818;15.224;2023-04-15T08:48:32;8.60;99.90
16160;DHT22;8185;57.818;15.224;2023-04-15T08:51:00;8.60;99.90
16160;DHT22;8185;57.818;15.224;2023-04-15T08:53:30;8.70;99.90
16160;DHT22;8185;57.818;15.224;2023-04-15T08:55:59;8.70;99.90
16160;DHT22;8185;57.818;15.224;2023-04-15T08:58:34;9.00;99.90
16160;DHT22;8185;57.818;15.224;2023-04-15T09:01:02;9.10;99.90
16160;DHT22;8185;57.818;15.224;2023-04-15T09:03:34;9.20;99.90
16160;DHT22;8185;57.818;15.224;2023-04-15T09:06:04;9.30;99.90
16160;DHT22;8185;57.818;15.224;2023-04-15T09:08:33;9.30;99.90
16160;DHT22;8185;57.818;15.224;2023-04-15T09:11:01;9.50;99.90
16160;DHT22;8185;57.818;15.224;2023-04-15T09:13:29;9.70;99.90
16160;DHT22;8185;57.818;15.224;2023-04-15T09:16:02;9.60;99.90
16160;DHT22;8185;57.818;15.224;2023-04-15T09:18:40;9.90;99.90
16160;DHT22;8185;57.818;15.224;2023-04-15T09:21:16;10.50;99.90
16160;DHT22;8185;57.818;15.224;2023-04-15T09:23:56;10.80;99.90
16160;DHT22;8185;57.818;15.224;2023-04-15T09:26:35;10.80;99.90
16160;DHT22;8185;57.818;15.224;2023-04-15T09:29:06;11.00;99.90
16160;DHT22;8185;57.818;15.224;2023-04-15T09:31:34;10.80;99.90
16160;DHT22;8185;57.818;15.224;2023-04-15T09:34:02;11.10;99.90
16160;DHT22;8185;57.818;15.224;2023-04-15T09:36:37;11.30;99.90
16160;DHT22;8185;57.818;15.224;2023-04-15T09:39:10;11.20;99.90
16160;DHT22;8185;57.818;15.224;2023-04-15T09:41:38;11.40;99.90
16160;DHT22;8185;57.818;15.224;2023-04-15T09:44:06;11.60;99.90
16160;DHT22;8185;57.818;15.224;2023-04-15T09:46:48;11.50;99.90
16160;DHT22;8185;57.818;15.224;2023-04-15T09:49:15;12.10;99.90
16160;DHT22;8185;57.818;15.224;2023-04-15T09:51:43;12.80;99.90
16160;DHT22;8185;57.818;15.224;2023-04-15T09:54:18;13.20;99.90
16160;DHT22;8185;57.818;15.224;2023-04-15T09:56:46;13.30;99.90
16160;DHT22;8185;57.818;15.224;2023-04-15T09:59:14;13.50;99.90
16160;DHT22;8185;57.818;15.224;2023-04-15T10:01:42;14.20;99.90
16160;DHT22;8185;57.818;15.224;2023-04-15T10:04:11;14.20;99.90
16160;DHT22;8185;57.818;15.224;2023-04-15T10:06:38;14.50;99.90
16160;DHT22;8185;57.818;15.224;2023-04-15T10:09:07;14.80;99.90
16160;DHT22;8185;57.818;15.224;2023-04-15T10:11:36;14.30;99.90
16160;DHT22;8185;57.818;15.224;2023-04-15T10:14:05;14.20;99.90
16160;DHT22;8185;57.818;15.224;2023-04-15T10:16:34;14.00;99.90
16160;DHT22;8185;57.818;15.224;2023-04-15T10:19:05;14.10;99.90
16160;DHT22;8185;57.818;15.224;2023-04-15T10:21:35;14.10;99.90
16160;DHT22;8185;57.818;15.224;2023-04-15T10:24:04;14.90;99.90
16160;DHT22;8185;57.818;15.224;2023-04-15T10:26:32;14.30;99.90
16160;DHT22;8185;57.818;15.224;2023-04-15T10:29:01;14.80;99.90
16160;DHT22;8185;57.818;15.224;2023-04-15T10:31:30;16.00;99.90
16160;DHT22;8185;57.818;15.224;2023-04-15T10:33:57;15.60;99.90
16160;DHT22;8185;57.818;15.224;2023-04-15T10:36:28;14.90;99.90
16160;DHT22;8185;57.818;15.224;2023-04-15T10:38:56;14.40;99.90
16160;DHT22;8185;57.818;15.224;2023-04-15T10:41:24;14.00;99.90
16160;DHT22;8185;57.818;15.224;2023-04-15T10:43:54;14.70;99.90
16160;DHT22;8185;57.818;15.224;2023-04-15T10:46:23;14.70;99.90
16160;DHT22;8185;57.818;15.224;2023-04-15T10:48:52;14.30;99.90
16160;DHT22;8185;57.818;15.224;2023-04-15T10:51:30;13.80;99.90
16160;DHT22;8185;57.818;15.224;2023-04-15T10:53:58;13.70;99.90
16160;DHT22;8185;57.818;15.224;2023-04-15T10:56:27;14.20;99.90
16160;DHT22;8185;57.818;15.224;2023-04-15T10:58:58;13.90;99.90
16160;DHT22;8185;57.818;15.224;2023-04-15T11:01:52;14.10;99.90
16160;DHT22;8185;57.818;15.224;2023-04-15T11:04:50;14.10;99.90
16160;DHT22;8185;57.818;15.224;2023-04-15T11:07:36;14.30;99.90
16160;DHT22;8185;57.818;15.224;2023-04-15T11:13:22;14.60;99.90
16160;DHT22;8185;57.818;15.224;2023-04-15T11:15:57;14.10;99.90
16160;DHT22;8185;57.818;15.224;2023-04-15T11:18:29;13.70;99.90
16160;DHT22;8185;57.818;15.224;2023-04-15T11:20:59;13.30;99.90
16160;DHT22;8185;57.818;15.224;2023-04-15T11:23:29;13.40;99.90
16160;DHT22;8185;57.818;15.224;2023-04-15T11:25:57;13.50;99.90
16160;DHT22;8185;57.818;15.224;2023-04-15T11:28:26;13.50;99.90
16160;DHT22;8185;57.818;15.224;2023-04-15T11:30:54;13.30;99.90
16160;DHT22;8185;57.818;15.224;2023-04-15T11:33:22;13.50;99.90
16160;DHT22;8185;57.818;15.224;2023-04-15T11:35:51;13.10;99.90
16160;DHT22;8185;57.818;15.224;2023-04-15T11:38:19;13.40;99.90
16160;DHT22;8185;57.818;15.224;2023-04-15T11:40:48;13.00;99.90
16160;DHT22;8185;57.818;15.224;2023-04-15T11:43:18;13.20;99.90
16160;DHT22;8185;57.818;15.224;2023-04-15T11:45:52;13.40;99.90
16160;DHT22;8185;57.818;15.224;2023-04-15T11:48:21;13.90;99.90
16160;DHT22;8185;57.818;15.224;2023-04-15T11:50:55;13.70;99.90
16160;DHT22;8185;57.818;15.224;2023-04-15T11:53:23;13.40;99.90
16160;DHT22;8185;57.818;15.224;2023-04-15T11:55:52;13.10;99.90
16160;DHT22;8185;57.818;15.224;2023-04-15T11:58:21;13.20;99.90
16160;DHT22;8185;57.818;15.224;2023-04-15T12:00:50;13.50;99.90
16160;DHT22;8185;57.818;15.224;2023-04-15T12:03:22;13.70;99.90
16160;DHT22;8185;57.818;15.224;2023-04-15T12:06:09;13.80;99.90
16160;DHT22;8185;57.818;15.224;2023-04-15T12:09:07;13.50;99.90
16160;DHT22;8185;57.818;15.224;2023-04-15T12:11:45;13.30;99.90
16160;DHT22;8185;57.818;15.224;2023-04-15T12:14:20;13.10;99.90
16160;DHT22;8185;57.818;15.224;2023-04-15T12:16:49;12.90;99.90
16160;DHT22;8185;57.818;15.224;2023-04-15T12:19:22;13.30;99.90
16160;DHT22;8185;57.818;15.224;2023-04-15T12:21:53;13.30;99.90
16160;DHT22;8185;57.818;15.224;2023-04-15T12:24:20;13.10;99.90
16160;DHT22;8185;57.818;15.224;2023-04-15T12:26:50;13.20;99.90
16160;DHT22;8185;57.818;15.224;2023-04-15T12:29:18;12.90;99.90
16160;DHT22;8185;57.818;15.224;2023-04-15T12:31:47;12.60;99.90
16160;DHT22;8185;57.818;15.224;2023-04-15T12:34:16;12.60;99.90
16160;DHT22;8185;57.818;15.224;2023-04-15T12:36:44;12.50;99.90
16160;DHT22;8185;57.818;15.224;2023-04-15T12:39:13;12.60;99.90
16160;DHT22;8185;57.818;15.224;2023-04-15T12:41:40;12.50;99.90
16160;DHT22;8185;57.818;15.224;2023-04-15T12:44:08;12.40;99.90
16160;DHT22;8185;57.818;15.224;2023-04-15T12:46:35;12.30;99.90
16160;DHT22;8185;57.818;15.224;2023-04-15T12:49:02;12.30;99.90
16160;DHT22;8185;57.818;15.224;2023-04-15T12:51:29;12.60;99.90
16160;DHT22;8185;57.818;15.224;2023-04-15T12:53:57;12.80;99.90
16160;DHT22;8185;57.818;15.224;2023-04-15T12:56:26;13.20;99.90
16160;DHT22;8185;57.818;15.224;2023-04-15T12:58:53;13.40;99.90
16160;DHT22;8185;57.818;15.224;2023-04-15T13:01:20;13.10;99.90
16160;DHT22;8185;57.818;15.224;2023-04-15T13:03:47;12.90;99.90
16160;DHT22;8185;57.818;15.224;2023-04-15T13:06:18;12.70;99.90
16160;DHT22;8185;57.818;15.224;2023-04-15T13:08:46;13.10;99.90
16160;DHT22;8185;57.818;15.224;2023-04-15T13:11:13;13.60;99.90
16160;DHT22;8185;57.818;15.224;2023-04-15T13:13:42;13.50;99.90
16160;DHT22;8185;57.818;15.224;2023-04-15T13:16:09;13.90;99.90
16160;DHT22;8185;57.818;15.224;2023-04-15T13:18:36;13.30;99.90
16160;DHT22;8185;57.818;15.224;2023-04-15T13:21:03;12.70;99.90
16160;DHT22;8185;57.818;15.224;2023-04-15T13:23:32;12.60;99.90
16160;DHT22;8185;57.818;15.224;2023-04-15T13:25:59;12.60;99.90
16160;DHT22;8185;57.818;15.224;2023-04-15T13:28:26;12.60;99.90
16160;DHT22;8185;57.818;15.224;2023-04-15T13:30:55;12.80;99.90
16160;DHT22;8185;57.818;15.224;2023-04-15T13:33:22;13.10;99.90
16160;DHT22;8185;57.818;15.224;2023-04-15T13:35:49;12.90;99.90
16160;DHT22;8185;57.818;15.224;2023-04-15T13:38:16;13.90;99.90
16160;DHT22;8185;57.818;15.224;2023-04-15T13:40:44;16.10;99.90
16160;DHT22;8185;57.818;15.224;2023-04-15T13:43:11;15.80;99.90
16160;DHT22;8185;57.818;15.224;2023-04-15T13:45:38;16.90;99.90
16160;DHT22;8185;57.818;15.224;2023-04-15T13:48:07;16.40;99.90
16160;DHT22;8185;57.818;15.224;2023-04-15T13:50:34;16.20;99.90
16160;DHT22;8185;57.818;15.224;2023-04-15T13:53:01;16.70;99.90
16160;DHT22;8185;57.818;15.224;2023-04-15T13:55:29;17.10;99.90
16160;DHT22;8185;57.818;15.224;2023-04-15T13:57:56;17.50;99.90
16160;DHT22;8185;57.818;15.224;2023-04-15T14:00:23;18.20;99.90
16160;DHT22;8185;57.818;15.224;2023-04-15T14:02:50;17.30;99.90
16160;DHT22;8185;57.818;15.224;2023-04-15T14:05:19;18.60;99.90
16160;DHT22;8185;57.818;15.224;2023-04-15T14:07:46;19.50;99.90
16160;DHT22;8185;57.818;15.224;2023-04-15T14:10:13;20.00;99.90
16160;DHT22;8185;57.818;15.224;2023-04-15T14:12:40;20.80;99.90
16160;DHT22;8185;57.818;15.224;2023-04-15T14:15:08;21.30;99.90
16160;DHT22;8185;57.818;15.224;2023-04-15T14:17:35;20.50;99.90
16160;DHT22;8185;57.818;15.224;2023-04-15T14:20:06;21.40;99.90
16160;DHT22;8185;57.818;15.224;2023-04-15T14:22:35;20.90;99.90
16160;DHT22;8185;57.818;15.224;2023-04-15T14:25:03;20.10;99.90
16160;DHT22;8185;57.818;15.224;2023-04-15T14:27:31;19.90;99.90
16160;DHT22;8185;57.818;15.224;2023-04-15T14:29:58;21.10;99.90
16160;DHT22;8185;57.818;15.224;2023-04-15T14:32:25;21.10;99.90
16160;DHT22;8185;57.818;15.224;2023-04-15T14:34:52;20.80;99.90
16160;DHT22;8185;57.818;15.224;2023-04-15T14:37:19;21.20;99.90
16160;DHT22;8185;57.818;15.224;2023-04-15T14:39:48;21.40;99.90
16160;DHT22;8185;57.818;15.224;2023-04-15T14:42:15;21.60;99.90
16160;DHT22;8185;57.818;15.224;2023-04-15T14:44:42;21.80;99.50
16160;DHT22;8185;57.818;15.224;2023-04-15T14:47:10;22.50;99.00
16160;DHT22;8185;57.818;15.224;2023-04-15T14:49:37;21.60;99.70
16160;DHT22;8185;57.818;15.224;2023-04-15T14:52:04;20.70;99.90
16160;DHT22;8185;57.818;15.224;2023-04-15T14:54:31;21.40;99.90
16160;DHT22;8185;57.818;15.224;2023-04-15T14:57:00;19.90;99.90
16160;DHT22;8185;57.818;15.224;2023-04-15T14:59:27;17.90;99.90
16160;DHT22;8185;57.818;15.224;2023-04-15T15:01:54;16.00;99.90
16160;DHT22;8185;57.818;15.224;2023-04-15T15:04:21;15.30;99.90
16160;DHT22;8185;57.818;15.224;2023-04-15T15:06:48;14.80;99.90
16160;DHT22;8185;57.818;15.224;2023-04-15T15:09:16;14.40;99.90
16160;DHT22;8185;57.818;15.224;2023-04-15T15:11:44;14.40;99.90
16160;DHT22;8185;57.818;15.224;2023-04-15T15:14:13;14.40;99.90
16160;DHT22;8185;57.818;15.224;2023-04-15T15:16:40;13.90;99.90
16160;DHT22;8185;57.818;15.224;2023-04-15T15:19:07;13.80;99.90
16160;DHT22;8185;57.818;15.224;2023-04-15T15:21:34;13.80;99.90
16160;DHT22;8185;57.818;15.224;2023-04-15T15:24:02;13.40;99.90
16160;DHT22;8185;57.818;15.224;2023-04-15T15:26:29;13.30;99.90
16160;DHT22;8185;57.818;15.224;2023-04-15T15:28:56;13.10;99.90
16160;DHT22;8185;57.818;15.224;2023-04-15T15:31:25;12.90;99.90
16160;DHT22;8185;57.818;15.224;2023-04-15T15:33:52;12.70;99.90
16160;DHT22;8185;57.818;15.224;2023-04-15T15:36:20;12.30;99.90
16160;DHT22;8185;57.818;15.224;2023-04-15T15:38:47;12.20;99.90
16160;DHT22;8185;57.818;15.224;2023-04-15T15:41:14;12.20;99.90
16160;DHT22;8185;57.818;15.224;2023-04-15T15:43:41;12.10;99.90
16160;DHT22;8185;57.818;15.224;2023-04-15T15:46:08;11.50;99.90
16160;DHT22;8185;57.818;15.224;2023-04-15T15:48:37;11.50;99.90
16160;DHT22;8185;57.818;15.224;2023-04-15T15:51:04;11.50;99.90